createdAt,value
2023-04-19T00:00:19.974Z,100.00
2023-04-19T00:05:24.698Z,100.00
2023-04-19T00:10:27.817Z,100.00
2023-04-19T00:15:32.684Z,100.00
2023-04-19T00:20:36.273Z,100.00
2023-04-19T00:25:39.554Z,100.00
2023-04-19T00:30:43.971Z,100.00
2023-04-19T00:35:47.034Z,100.00
2023-04-19T00:40:50.143Z,100.00
2023-04-19T00:45:54.756Z,100.00
2023-04-19T00:50:57.964Z,100.00
2023-04-19T00:56:04.685Z,100.00
2023-04-19T01:01:09.101Z,100.00
2023-04-19T01:06:12.300Z,100.00
2023-04-19T01:11:15.374Z,100.00
2023-04-19T01:16:20.115Z,100.00
2023-04-19T01:21:23.384Z,100.00
2023-04-19T01:26:27.749Z,100.00
2023-04-19T01:31:30.879Z,100.00
2023-04-19T01:36:33.971Z,100.00
2023-04-19T01:41:38.326Z,100.00
2023-04-19T01:46:42.654Z,100.00
2023-04-19T01:51:46.562Z,100.00
2023-04-19T01:56:50.941Z,100.00
2023-04-19T02:01:53.998Z,100.00
2023-04-19T02:06:57.014Z,100.00
2023-04-19T02:12:01.447Z,100.00
2023-04-19T02:17:04.519Z,100.00
2023-04-19T02:22:07.905Z,100.00
2023-04-19T02:27:12.770Z,100.00
2023-04-19T02:32:15.857Z,100.00
2023-04-19T02:37:19.149Z,100.00
2023-04-19T02:42:23.486Z,100.00
2023-04-19T02:47:26.576Z,100.00
2023-04-19T02:52:29.606Z,100.00
2023-04-19T02:57:34.015Z,100.00
2023-04-19T03:02:37.973Z,100.00
2023-04-19T03:07:42.530Z,100.00
2023-04-19T03:12:48.733Z,100.00
2023-04-19T03:17:51.955Z,100.00
2023-04-19T03:22:54.992Z,100.00
2023-04-19T03:27:59.511Z,100.00
2023-04-19T03:33:02.522Z,100.00
2023-04-19T03:38:05.609Z,100.00
2023-04-19T03:43:10.006Z,100.00
2023-04-19T03:48:13.017Z,100.00
2023-04-19T03:53:16.055Z,100.00
2023-04-19T03:58:20.405Z,100.00
2023-04-19T04:03:23.777Z,100.00
2023-04-19T04:08:27.044Z,100.00
2023-04-19T04:13:31.443Z,100.00
2023-04-19T04:18:34.474Z,100.00
2023-04-19T04:23:37.741Z,100.00
2023-04-19T04:28:42.326Z,100.00
2023-04-19T04:33:46.243Z,100.00
2023-04-19T04:38:49.883Z,100.00
2023-04-19T04:44:10.775Z,100.00
2023-04-19T04:49:15.441Z,100.00
2023-04-19T04:54:18.808Z,100.00
2023-04-19T04:59:23.172Z,100.00
2023-04-19T05:04:26.700Z,100.00
2023-04-19T05:09:29.730Z,100.00
2023-04-19T05:14:34.438Z,100.00
2023-04-19T05:19:37.726Z,100.00
2023-04-19T05:24:42.407Z,100.00
2023-04-19T05:29:46.953Z,100.00
2023-04-19T05:34:49.998Z,100.00
2023-04-19T05:39:53.112Z,100.00
2023-04-19T05:44:57.472Z,100.00
2023-04-19T05:50:01.027Z,100.00
2023-04-19T05:55:04.675Z,100.00
2023-04-19T06:00:10.801Z,100.00
2023-04-19T06:05:14.374Z,100.00
2023-04-19T06:10:17.992Z,100.00
2023-04-19T06:15:26.159Z,100.00
2023-04-19T06:20:29.191Z,100.00
2023-04-19T06:25:32.247Z,100.00
2023-04-19T06:30:36.617Z,98.83
2023-04-19T06:35:39.647Z,95.13
2023-04-19T06:40:42.641Z,97.52
2023-04-19T06:45:47.483Z,96.03
2023-04-19T06:50:50.562Z,94.73
2023-04-19T06:55:59.532Z,95.36
2023-04-19T07:01:04.391Z,95.27
2023-04-19T07:06:07.955Z,92.38
2023-04-19T07:11:11.213Z,91.69
2023-04-19T07:16:15.693Z,88.73
2023-04-19T07:21:19.228Z,87.46
2023-04-19T07:26:22.319Z,81.25
2023-04-19T07:31:26.956Z,81.04
2023-04-19T07:36:31.419Z,79.29
2023-04-19T07:41:36.086Z,75.82
2023-04-19T07:46:43.903Z,73.74
2023-04-19T07:51:46.959Z,72.56
2023-04-19T07:56:50.110Z,69.38
2023-04-19T08:01:54.546Z,66.98
2023-04-19T08:06:58.156Z,63.38
2023-04-19T08:12:01.286Z,59.99
2023-04-19T08:17:24.136Z,56.91
2023-04-19T08:22:28.779Z,54.74
2023-04-19T08:27:31.976Z,50.52
2023-04-19T08:32:36.371Z,56.79
2023-04-19T08:37:39.404Z,57.00
2023-04-19T08:42:42.863Z,54.59
2023-04-19T08:47:59.972Z,50.56
2023-04-19T08:53:21.113Z,48.99
2023-04-19T08:58:41.313Z,49.40
2023-04-19T09:04:02.569Z,49.61
2023-04-19T09:14:24.658Z,46.20
2023-04-19T09:19:46.911Z,46.78
2023-04-19T09:29:57.510Z,45.57
2023-04-19T09:35:01.866Z,44.95
2023-04-19T09:40:23.427Z,44.41
2023-04-19T09:45:30.868Z,43.74
2023-04-19T09:50:46.880Z,44.91
2023-04-19T09:56:02.260Z,48.52
2023-04-19T10:01:15.136Z,51.67
2023-04-19T10:11:33.737Z,46.86
2023-04-19T10:16:38.896Z,43.22
2023-04-19T10:21:46.412Z,43.64
2023-04-19T10:27:12.218Z,41.76
2023-04-19T10:32:16.261Z,42.07
2023-04-19T10:37:23.750Z,39.29
2023-04-19T10:42:44.354Z,42.69
2023-04-19T10:47:47.505Z,44.26
2023-04-19T10:52:51.975Z,41.58
2023-04-19T10:58:06.173Z,38.86
2023-04-19T11:03:46.973Z,36.66
2023-04-19T11:08:52.153Z,38.33
2023-04-19T11:13:57.858Z,35.09
2023-04-19T11:19:01.180Z,36.14
2023-04-19T11:24:09.058Z,31.99
2023-04-19T11:29:12.279Z,34.21
2023-04-19T11:34:16.127Z,39.21
2023-04-19T11:39:21.393Z,37.84
2023-04-19T11:44:24.548Z,32.75
2023-04-19T11:49:29.142Z,34.90
2023-04-19T11:54:33.888Z,35.45
2023-04-19T11:59:37.899Z,31.85
2023-04-19T12:04:42.034Z,34.54
2023-04-19T12:09:49.864Z,32.35
2023-04-19T12:14:53.561Z,31.57
2023-04-19T12:19:56.605Z,32.24
2023-04-19T12:25:00.938Z,31.04
2023-04-19T12:30:04.525Z,28.66
2023-04-19T12:35:08.626Z,29.55
2023-04-19T12:40:14.791Z,29.34
2023-04-19T12:45:19.277Z,30.15
2023-04-19T12:50:22.399Z,28.75
2023-04-19T12:55:26.832Z,28.39
2023-04-19T13:00:30.179Z,29.30
2023-04-19T13:05:33.263Z,29.99
2023-04-19T13:10:37.613Z,29.13
2023-04-19T13:15:41.837Z,26.67
2023-04-19T13:20:44.853Z,27.03
2023-04-19T13:25:49.199Z,28.05
2023-04-19T13:30:52.819Z,30.48
2023-04-19T13:35:55.876Z,30.35
2023-04-19T13:41:00.327Z,29.57
2023-04-19T13:46:03.348Z,30.31
2023-04-19T13:51:07.647Z,30.42
2023-04-19T13:56:12.021Z,29.26
2023-04-19T14:01:15.157Z,29.85
2023-04-19T14:06:18.224Z,32.35
2023-04-19T14:11:23.737Z,31.92
2023-04-19T14:16:26.882Z,33.14
2023-04-19T14:21:31.646Z,33.78
2023-04-19T14:26:36.056Z,32.98
2023-04-19T14:31:39.119Z,35.12
2023-04-19T14:36:42.170Z,34.44
2023-04-19T14:41:46.511Z,34.17
2023-04-19T14:46:49.493Z,36.75
2023-04-19T14:51:52.873Z,35.55
2023-04-19T14:56:57.257Z,36.13
2023-04-19T15:02:00.329Z,35.57
2023-04-19T15:07:03.948Z,36.93
2023-04-19T15:12:08.477Z,39.17
2023-04-19T15:17:11.488Z,37.25
2023-04-19T15:22:14.991Z,36.60
2023-04-19T15:27:19.673Z,38.42
2023-04-19T15:32:22.901Z,38.45
2023-04-19T15:37:28.470Z,36.54
2023-04-19T15:42:33.003Z,36.96
2023-04-19T15:47:36.480Z,38.15
2023-04-19T15:52:39.958Z,39.58
2023-04-19T15:57:45.522Z,39.75
2023-04-19T16:02:49.280Z,38.39
2023-04-19T16:08:02.604Z,36.09
2023-04-19T16:13:07.505Z,37.14
2023-04-19T16:18:11.177Z,36.21
2023-04-19T16:23:14.544Z,37.56
2023-04-19T16:28:19.775Z,38.01
2023-04-19T16:33:22.871Z,37.83
2023-04-19T16:38:26.015Z,38.45
2023-04-19T16:43:30.388Z,37.65
2023-04-19T16:48:33.743Z,38.63
2023-04-19T16:53:36.808Z,37.07
2023-04-19T16:58:41.217Z,35.91
2023-04-19T17:03:45.768Z,37.63
2023-04-19T17:08:49.023Z,38.43
2023-04-19T17:13:55.284Z,39.62
2023-04-19T17:18:59.700Z,39.29
2023-04-19T17:24:02.707Z,39.21
2023-04-19T17:29:07.152Z,39.69
2023-04-19T17:34:10.192Z,38.51
2023-04-19T17:39:13.206Z,39.77
2023-04-19T17:44:17.660Z,39.87
2023-04-19T17:49:21.678Z,40.04
2023-04-19T17:54:25.076Z,41.16
2023-04-19T17:59:29.800Z,41.18
2023-04-19T18:04:32.895Z,43.55
2023-04-19T18:09:35.975Z,41.42
2023-04-19T18:14:40.305Z,42.55
2023-04-19T18:19:43.354Z,43.88
2023-04-19T18:24:47.333Z,44.95
2023-04-19T18:29:52.974Z,46.37
2023-04-19T18:34:56.046Z,49.02
2023-04-19T18:39:59.058Z,49.85
2023-04-19T18:45:04.182Z,50.02
2023-04-19T18:50:08.933Z,49.53
2023-04-19T18:55:13.694Z,50.01
2023-04-19T19:00:19.881Z,49.36
2023-04-19T19:05:23.112Z,48.99
2023-04-19T19:10:48.542Z,50.26
2023-04-19T19:15:50.716Z,53.01
2023-04-19T19:20:58.119Z,55.69
2023-04-19T19:26:01.751Z,57.20
2023-04-19T19:31:06.759Z,58.54
2023-04-19T19:36:10.262Z,58.13
2023-04-19T19:46:22.792Z,57.18
2023-04-19T19:56:53.827Z,55.00
2023-04-19T20:02:03.800Z,54.88
2023-04-19T20:07:32.476Z,56.00
2023-04-19T20:12:29.945Z,55.78
2023-04-19T20:17:34.356Z,56.33
2023-04-19T20:22:37.720Z,56.53
2023-04-19T20:27:41.022Z,56.03
2023-04-19T20:32:45.713Z,57.34
2023-04-19T20:37:48.830Z,57.00
2023-04-19T20:42:51.972Z,57.57
2023-04-19T20:47:59.691Z,57.47
2023-04-19T20:53:02.765Z,61.19
2023-04-19T20:58:05.954Z,62.33
2023-04-19T21:03:10.588Z,61.33
2023-04-19T21:08:16.017Z,64.23
2023-04-19T21:13:19.061Z,64.09
2023-04-19T21:18:24.522Z,64.03
2023-04-19T21:23:28.366Z,65.34
2023-04-19T21:28:31.738Z,66.67
2023-04-19T21:33:36.551Z,69.06
2023-04-19T21:38:39.619Z,68.65
2023-04-19T21:43:42.637Z,67.94
2023-04-19T21:48:46.981Z,67.18
2023-04-19T21:53:50.381Z,68.29
2023-04-19T21:58:53.380Z,69.43
2023-04-19T22:03:58.600Z,71.58
2023-04-19T22:09:02.981Z,72.11
2023-04-19T22:14:06.676Z,72.96
2023-04-19T22:19:11.423Z,73.65
2023-04-19T22:24:14.826Z,73.91
2023-04-19T22:29:18.517Z,74.15
2023-04-19T22:34:23.095Z,73.36
2023-04-19T22:39:26.816Z,74.12
2023-04-19T22:44:29.919Z,75.27
2023-04-19T22:49:35.112Z,77.36
2023-04-19T22:54:38.166Z,77.17
2023-04-19T22:59:41.799Z,77.11
2023-04-19T23:04:48.447Z,75.91
2023-04-19T23:09:51.700Z,75.21
2023-04-19T23:14:55.154Z,74.25
2023-04-19T23:19:59.885Z,74.66
2023-04-19T23:25:02.920Z,75.58
2023-04-19T23:30:08.269Z,74.46
2023-04-19T23:35:12.754Z,75.02
2023-04-19T23:40:15.794Z,75.86
2023-04-19T23:45:18.934Z,76.28
2023-04-19T23:50:23.429Z,75.80
2023-04-19T23:55:26.503Z,74.96
